sensor_id;sensor_type;location;lat;lon;timestamp;temperature;humidity
18291;DHT22;9271;48.590;8.866;2023-02-19T00:00:59;12.00;99.90
18291;DHT22;9271;48.590;8.866;2023-02-19T00:03:28;11.80;99.90
18291;DHT22;9271;48.590;8.866;2023-02-19T00:05:54;11.50;99.90
18291;DHT22;9271;48.590;8.866;2023-02-19T00:08:22;11.50;99.90
18291;DHT22;9271;48.590;8.866;2023-02-19T00:10:49;11.50;99.90
18291;DHT22;9271;48.590;8.866;2023-02-19T00:13:15;11.70;99.90
18291;DHT22;9271;48.590;8.866;2023-02-19T00:15:43;11.60;99.90
18291;DHT22;9271;48.590;8.866;2023-02-19T00:18:09;11.70;99.90
18291;DHT22;9271;48.590;8.866;2023-02-19T00:20:36;11.70;99.90
18291;DHT22;9271;48.590;8.866;2023-02-19T00:23:03;11.70;99.90
18291;DHT22;9271;48.590;8.866;2023-02-19T00:25:31;11.70;99.90
18291;DHT22;9271;48.590;8.866;2023-02-19T00:28:01;11.70;99.90
18291;DHT22;9271;48.590;8.866;2023-02-19T00:30:28;11.70;99.90
18291;DHT22;9271;48.590;8.866;2023-02-19T00:32:55;11.60;99.90
18291;DHT22;9271;48.590;8.866;2023-02-19T00:35:21;11.70;99.90
18291;DHT22;9271;48.590;8.866;2023-02-19T00:37:48;11.50;99.90
18291;DHT22;9271;48.590;8.866;2023-02-19T00:40:15;11.80;99.90
18291;DHT22;9271;48.590;8.866;2023-02-19T00:42:43;11.90;99.90
18291;DHT22;9271;48.590;8.866;2023-02-19T00:45:09;11.80;99.90
18291;DHT22;9271;48.590;8.866;2023-02-19T00:47:36;11.80;99.90
18291;DHT22;9271;48.590;8.866;2023-02-19T00:50:03;11.90;99.90
18291;DHT22;9271;48.590;8.866;2023-02-19T00:52:29;12.20;99.90
18291;DHT22;9271;48.590;8.866;2023-02-19T00:54:56;12.40;99.90
18291;DHT22;9271;48.590;8.866;2023-02-19T00:57:23;12.30;99.90
18291;DHT22;9271;48.590;8.866;2023-02-19T00:59:51;12.40;99.90
18291;DHT22;9271;48.590;8.866;2023-02-19T01:02:17;12.30;99.90
18291;DHT22;9271;48.590;8.866;2023-02-19T01:04:44;11.80;99.90
18291;DHT22;9271;48.590;8.866;2023-02-19T01:07:11;11.70;99.90
18291;DHT22;9271;48.590;8.866;2023-02-19T01:09:37;12.00;99.90
18291;DHT22;9271;48.590;8.866;2023-02-19T01:12:04;12.30;99.90
18291;DHT22;9271;48.590;8.866;2023-02-19T01:14:32;12.10;99.90
18291;DHT22;9271;48.590;8.866;2023-02-19T01:16:59;12.00;99.90
18291;DHT22;9271;48.590;8.866;2023-02-19T01:19:26;12.00;99.90
18291;DHT22;9271;48.590;8.866;2023-02-19T01:21:53;12.00;99.90
18291;DHT22;9271;48.590;8.866;2023-02-19T01:24:19;12.00;99.90
18291;DHT22;9271;48.590;8.866;2023-02-19T01:26:46;11.70;99.90
18291;DHT22;9271;48.590;8.866;2023-02-19T01:29:13;11.70;99.90
18291;DHT22;9271;48.590;8.866;2023-02-19T01:31:39;11.60;99.90
18291;DHT22;9271;48.590;8.866;2023-02-19T01:34:09;11.40;99.90
18291;DHT22;9271;48.590;8.866;2023-02-19T01:36:36;11.40;99.90
18291;DHT22;9271;48.590;8.866;2023-02-19T01:39:04;11.40;99.90
18291;DHT22;9271;48.590;8.866;2023-02-19T01:41:34;11.20;99.90
18291;DHT22;9271;48.590;8.866;2023-02-19T01:44:03;11.20;99.90
18291;DHT22;9271;48.590;8.866;2023-02-19T01:46:32;11.50;99.90
18291;DHT22;9271;48.590;8.866;2023-02-19T01:49:02;11.60;99.90
18291;DHT22;9271;48.590;8.866;2023-02-19T01:51:32;11.70;99.90
18291;DHT22;9271;48.590;8.866;2023-02-19T01:54:01;11.30;99.90
18291;DHT22;9271;48.590;8.866;2023-02-19T01:56:31;11.20;99.90
18291;DHT22;9271;48.590;8.866;2023-02-19T01:58:59;11.40;99.90
18291;DHT22;9271;48.590;8.866;2023-02-19T02:01:26;11.50;99.90
18291;DHT22;9271;48.590;8.866;2023-02-19T02:03:53;11.70;99.90
18291;DHT22;9271;48.590;8.866;2023-02-19T02:06:22;11.90;99.90
18291;DHT22;9271;48.590;8.866;2023-02-19T02:08:52;11.60;99.90
18291;DHT22;9271;48.590;8.866;2023-02-19T02:11:39;11.60;99.90
18291;DHT22;9271;48.590;8.866;2023-02-19T02:14:07;11.80;99.90
18291;DHT22;9271;48.590;8.866;2023-02-19T02:16:41;11.60;99.90
18291;DHT22;9271;48.590;8.866;2023-02-19T02:19:23;11.60;99.90
18291;DHT22;9271;48.590;8.866;2023-02-19T02:22:00;11.50;99.90
18291;DHT22;9271;48.590;8.866;2023-02-19T02:24:44;11.20;99.90
18291;DHT22;9271;48.590;8.866;2023-02-19T02:27:27;11.10;99.90
18291;DHT22;9271;48.590;8.866;2023-02-19T02:30:26;11.10;99.90
18291;DHT22;9271;48.590;8.866;2023-02-19T02:32:58;11.10;99.90
18291;DHT22;9271;48.590;8.866;2023-02-19T02:35:30;11.00;99.90
18291;DHT22;9271;48.590;8.866;2023-02-19T02:38:01;10.80;99.90
18291;DHT22;9271;48.590;8.866;2023-02-19T02:40:29;11.00;99.90
18291;DHT22;9271;48.590;8.866;2023-02-19T02:42:56;10.90;99.90
18291;DHT22;9271;48.590;8.866;2023-02-19T02:45:27;10.90;99.90
18291;DHT22;9271;48.590;8.866;2023-02-19T02:48:04;11.00;99.90
18291;DHT22;9271;48.590;8.866;2023-02-19T02:50:34;11.10;99.90
18291;DHT22;9271;48.590;8.866;2023-02-19T02:53:06;11.40;99.90
18291;DHT22;9271;48.590;8.866;2023-02-19T02:55:52;11.70;99.90
18291;DHT22;9271;48.590;8.866;2023-02-19T02:58:21;11.60;99.90
18291;DHT22;9271;48.590;8.866;2023-02-19T03:00:54;11.00;99.90
18291;DHT22;9271;48.590;8.866;2023-02-19T03:03:42;11.00;99.90
18291;DHT22;9271;48.590;8.866;2023-02-19T03:06:10;10.80;99.90
18291;DHT22;9271;48.590;8.866;2023-02-19T03:08:41;10.60;99.90
18291;DHT22;9271;48.590;8.866;2023-02-19T03:11:11;10.80;99.90
18291;DHT22;9271;48.590;8.866;2023-02-19T03:13:56;11.10;99.90
18291;DHT22;9271;48.590;8.866;2023-02-19T03:16:45;11.20;99.90
18291;DHT22;9271;48.590;8.866;2023-02-19T03:19:34;11.10;99.90
18291;DHT22;9271;48.590;8.866;2023-02-19T03:22:06;10.70;99.90
18291;DHT22;9271;48.590;8.866;2023-02-19T03:24:38;11.00;99.90
18291;DHT22;9271;48.590;8.866;2023-02-19T03:27:25;10.90;99.90
18291;DHT22;9271;48.590;8.866;2023-02-19T03:29:54;10.90;99.90
18291;DHT22;9271;48.590;8.866;2023-02-19T03:32:26;11.10;99.90
18291;DHT22;9271;48.590;8.866;2023-02-19T03:34:56;11.20;99.90
18291;DHT22;9271;48.590;8.866;2023-02-19T03:37:28;11.00;99.90
18291;DHT22;9271;48.590;8.866;2023-02-19T03:39:55;11.20;99.90
18291;DHT22;9271;48.590;8.866;2023-02-19T03:42:31;11.40;99.90
18291;DHT22;9271;48.590;8.866;2023-02-19T03:45:18;11.20;99.90
18291;DHT22;9271;48.590;8.866;2023-02-19T03:47:51;10.90;99.90
18291;DHT22;9271;48.590;8.866;2023-02-19T03:50:23;10.70;99.90
18291;DHT22;9271;48.590;8.866;2023-02-19T03:52:57;10.50;99.90
18291;DHT22;9271;48.590;8.866;2023-02-19T03:55:31;10.50;99.90
18291;DHT22;9271;48.590;8.866;2023-02-19T03:58:06;10.30;99.90
18291;DHT22;9271;48.590;8.866;2023-02-19T04:00:38;10.60;99.90
18291;DHT22;9271;48.590;8.866;2023-02-19T04:03:12;10.70;99.90
18291;DHT22;9271;48.590;8.866;2023-02-19T04:05:44;10.60;99.90
18291;DHT22;9271;48.590;8.866;2023-02-19T04:08:15;10.40;99.90
18291;DHT22;9271;48.590;8.866;2023-02-19T04:10:45;10.50;99.90
18291;DHT22;9271;48.590;8.866;2023-02-19T04:13:16;10.60;99.90
18291;DHT22;9271;48.590;8.866;2023-02-19T04:15:46;10.70;99.90
18291;DHT22;9271;48.590;8.866;2023-02-19T04:18:18;10.90;99.90
18291;DHT22;9271;48.590;8.866;2023-02-19T04:20:47;10.80;99.90
18291;DHT22;9271;48.590;8.866;2023-02-19T04:23:16;10.50;99.90
18291;DHT22;9271;48.590;8.866;2023-02-19T04:25:46;10.60;99.90
18291;DHT22;9271;48.590;8.866;2023-02-19T04:28:14;10.70;99.90
18291;DHT22;9271;48.590;8.866;2023-02-19T04:30:41;11.00;99.90
18291;DHT22;9271;48.590;8.866;2023-02-19T04:33:08;11.00;99.90
18291;DHT22;9271;48.590;8.866;2023-02-19T04:35:36;11.00;99.90
18291;DHT22;9271;48.590;8.866;2023-02-19T04:38:03;11.10;99.90
18291;DHT22;9271;48.590;8.866;2023-02-19T04:40:30;11.20;99.90
18291;DHT22;9271;48.590;8.866;2023-02-19T04:42:56;11.20;99.90
18291;DHT22;9271;48.590;8.866;2023-02-19T04:45:23;10.70;99.90
18291;DHT22;9271;48.590;8.866;2023-02-19T04:47:50;10.50;99.90
18291;DHT22;9271;48.590;8.866;2023-02-19T04:50:17;10.30;99.90
18291;DHT22;9271;48.590;8.866;2023-02-19T04:52:45;10.10;99.90
18291;DHT22;9271;48.590;8.866;2023-02-19T04:55:11;10.20;99.90
18291;DHT22;9271;48.590;8.866;2023-02-19T04:57:38;10.20;99.90
18291;DHT22;9271;48.590;8.866;2023-02-19T05:00:06;10.20;99.90
18291;DHT22;9271;48.590;8.866;2023-02-19T05:02:33;10.40;99.90
18291;DHT22;9271;48.590;8.866;2023-02-19T05:05:00;10.40;99.90
18291;DHT22;9271;48.590;8.866;2023-02-19T05:07:27;10.40;99.90
18291;DHT22;9271;48.590;8.866;2023-02-19T05:09:55;10.50;99.90
18291;DHT22;9271;48.590;8.866;2023-02-19T05:12:22;10.30;99.90
18291;DHT22;9271;48.590;8.866;2023-02-19T05:14:49;10.40;99.90
18291;DHT22;9271;48.590;8.866;2023-02-19T05:17:16;10.40;99.90
18291;DHT22;9271;48.590;8.866;2023-02-19T05:19:42;10.60;99.90
18291;DHT22;9271;48.590;8.866;2023-02-19T05:22:09;10.40;99.90
18291;DHT22;9271;48.590;8.866;2023-02-19T05:24:36;10.30;99.90
18291;DHT22;9271;48.590;8.866;2023-02-19T05:27:04;10.30;99.90
18291;DHT22;9271;48.590;8.866;2023-02-19T05:29:31;10.40;99.90
18291;DHT22;9271;48.590;8.866;2023-02-19T05:31:58;10.60;99.90
18291;DHT22;9271;48.590;8.866;2023-02-19T05:34:24;10.70;99.90
18291;DHT22;9271;48.590;8.866;2023-02-19T05:36:51;10.60;99.90
18291;DHT22;9271;48.590;8.866;2023-02-19T05:39:18;10.50;99.90
18291;DHT22;9271;48.590;8.866;2023-02-19T05:41:44;10.50;99.90
18291;DHT22;9271;48.590;8.866;2023-02-19T05:44:12;10.40;99.90
18291;DHT22;9271;48.590;8.866;2023-02-19T05:46:39;10.50;99.90
18291;DHT22;9271;48.590;8.866;2023-02-19T05:49:06;10.50;99.90
18291;DHT22;9271;48.590;8.866;2023-02-19T05:51:32;10.40;99.90
18291;DHT22;9271;48.590;8.866;2023-02-19T05:53:59;10.20;99.90
18291;DHT22;9271;48.590;8.866;2023-02-19T05:56:30;10.40;99.90
18291;DHT22;9271;48.590;8.866;2023-02-19T05:58:59;10.30;99.90
18291;DHT22;9271;48.590;8.866;2023-02-19T06:01:28;10.50;99.90
18291;DHT22;9271;48.590;8.866;2023-02-19T06:03:55;10.70;99.90
18291;DHT22;9271;48.590;8.866;2023-02-19T06:06:22;10.80;99.90
18291;DHT22;9271;48.590;8.866;2023-02-19T06:08:49;10.70;99.90
18291;DHT22;9271;48.590;8.866;2023-02-19T06:11:16;10.30;99.90
18291;DHT22;9271;48.590;8.866;2023-02-19T06:13:44;10.30;99.90
18291;DHT22;9271;48.590;8.866;2023-02-19T06:16:10;10.40;99.90
18291;DHT22;9271;48.590;8.866;2023-02-19T06:18:39;10.60;99.90
18291;DHT22;9271;48.590;8.866;2023-02-19T06:21:07;10.60;99.90
18291;DHT22;9271;48.590;8.866;2023-02-19T06:23:34;10.70;99.90
18291;DHT22;9271;48.590;8.866;2023-02-19T06:26:06;10.70;99.90
18291;DHT22;9271;48.590;8.866;2023-02-19T06:28:33;10.90;99.90
18291;DHT22;9271;48.590;8.866;2023-02-19T06:31:00;10.90;99.90
18291;DHT22;9271;48.590;8.866;2023-02-19T06:33:27;10.90;99.90
18291;DHT22;9271;48.590;8.866;2023-02-19T06:35:57;11.00;99.90
18291;DHT22;9271;48.590;8.866;2023-02-19T06:38:23;11.10;99.90
18291;DHT22;9271;48.590;8.866;2023-02-19T06:40:50;10.90;99.90
18291;DHT22;9271;48.590;8.866;2023-02-19T06:43:17;10.80;99.90
18291;DHT22;9271;48.590;8.866;2023-02-19T06:45:43;10.70;99.90
18291;DHT22;9271;48.590;8.866;2023-02-19T06:48:11;10.70;99.90
18291;DHT22;9271;48.590;8.866;2023-02-19T06:50:37;10.40;99.90
18291;DHT22;9271;48.590;8.866;2023-02-19T06:53:05;10.30;99.90
18291;DHT22;9271;48.590;8.866;2023-02-19T06:55:33;10.30;99.90
18291;DHT22;9271;48.590;8.866;2023-02-19T06:58:00;10.30;99.90
18291;DHT22;9271;48.590;8.866;2023-02-19T07:00:26;10.60;99.60
18291;DHT22;9271;48.590;8.866;2023-02-19T07:02:53;10.80;99.10
18291;DHT22;9271;48.590;8.866;2023-02-19T07:05:21;10.70;98.70
18291;DHT22;9271;48.590;8.866;2023-02-19T07:07:48;10.50;99.00
18291;DHT22;9271;48.590;8.866;2023-02-19T07:10:16;10.50;99.00
18291;DHT22;9271;48.590;8.866;2023-02-19T07:12:43;10.60;98.30
18291;DHT22;9271;48.590;8.866;2023-02-19T07:15:10;10.50;98.20
18291;DHT22;9271;48.590;8.866;2023-02-19T07:17:36;10.70;98.30
18291;DHT22;9271;48.590;8.866;2023-02-19T07:20:04;10.50;97.90
18291;DHT22;9271;48.590;8.866;2023-02-19T07:22:30;10.60;98.10
18291;DHT22;9271;48.590;8.866;2023-02-19T07:24:57;10.70;97.70
18291;DHT22;9271;48.590;8.866;2023-02-19T07:27:25;10.40;98.10
18291;DHT22;9271;48.590;8.866;2023-02-19T07:29:52;10.20;98.30
18291;DHT22;9271;48.590;8.866;2023-02-19T07:32:18;10.20;98.60
18291;DHT22;9271;48.590;8.866;2023-02-19T07:34:45;10.40;98.80
18291;DHT22;9271;48.590;8.866;2023-02-19T07:37:12;10.50;98.60
18291;DHT22;9271;48.590;8.866;2023-02-19T07:39:38;10.60;98.50
18291;DHT22;9271;48.590;8.866;2023-02-19T07:42:05;10.90;97.80
18291;DHT22;9271;48.590;8.866;2023-02-19T07:44:33;10.90;97.90
18291;DHT22;9271;48.590;8.866;2023-02-19T07:47:00;11.00;97.40
18291;DHT22;9271;48.590;8.866;2023-02-19T07:49:26;10.90;97.20
18291;DHT22;9271;48.590;8.866;2023-02-19T07:51:53;10.70;97.40
18291;DHT22;9271;48.590;8.866;2023-02-19T07:54:19;10.70;97.70
18291;DHT22;9271;48.590;8.866;2023-02-19T07:56:46;10.80;97.60
18291;DHT22;9271;48.590;8.866;2023-02-19T07:59:14;11.00;97.10
18291;DHT22;9271;48.590;8.866;2023-02-19T08:01:45;11.10;97.00
18291;DHT22;9271;48.590;8.866;2023-02-19T08:04:29;11.00;97.40
18291;DHT22;9271;48.590;8.866;2023-02-19T08:06:55;11.00;97.60
18291;DHT22;9271;48.590;8.866;2023-02-19T08:09:22;11.10;97.70
18291;DHT22;9271;48.590;8.866;2023-02-19T08:11:49;10.70;98.30
18291;DHT22;9271;48.590;8.866;2023-02-19T08:14:33;10.60;98.50
18291;DHT22;9271;48.590;8.866;2023-02-19T08:17:01;10.60;98.60
18291;DHT22;9271;48.590;8.866;2023-02-19T08:19:28;10.60;98.90
18291;DHT22;9271;48.590;8.866;2023-02-19T08:21:55;10.60;98.80
18291;DHT22;9271;48.590;8.866;2023-02-19T08:24:21;10.90;98.40
18291;DHT22;9271;48.590;8.866;2023-02-19T08:26:48;10.70;98.20
18291;DHT22;9271;48.590;8.866;2023-02-19T08:29:15;10.60;98.50
18291;DHT22;9271;48.590;8.866;2023-02-19T08:31:42;10.50;98.60
18291;DHT22;9271;48.590;8.866;2023-02-19T08:34:10;10.30;99.30
18291;DHT22;9271;48.590;8.866;2023-02-19T08:36:37;10.60;99.40
18291;DHT22;9271;48.590;8.866;2023-02-19T08:39:03;10.80;99.00
18291;DHT22;9271;48.590;8.866;2023-02-19T08:41:30;11.10;98.40
18291;DHT22;9271;48.590;8.866;2023-02-19T08:43:57;11.20;98.30
18291;DHT22;9271;48.590;8.866;2023-02-19T08:46:23;11.10;97.80
18291;DHT22;9271;48.590;8.866;2023-02-19T08:48:50;11.00;98.30
18291;DHT22;9271;48.590;8.866;2023-02-19T08:51:18;10.70;98.00
18291;DHT22;9271;48.590;8.866;2023-02-19T08:53:45;10.80;97.70
18291;DHT22;9271;48.590;8.866;2023-02-19T08:56:14;10.90;97.70
18291;DHT22;9271;48.590;8.866;2023-02-19T08:58:42;11.20;98.00
18291;DHT22;9271;48.590;8.866;2023-02-19T09:01:09;11.40;97.50
18291;DHT22;9271;48.590;8.866;2023-02-19T09:03:36;11.60;97.50
18291;DHT22;9271;48.590;8.866;2023-02-19T09:06:03;11.50;97.90
18291;DHT22;9271;48.590;8.866;2023-02-19T09:08:31;11.50;97.90
18291;DHT22;9271;48.590;8.866;2023-02-19T09:10:59;11.60;98.00
18291;DHT22;9271;48.590;8.866;2023-02-19T09:13:26;11.60;98.00
18291;DHT22;9271;48.590;8.866;2023-02-19T09:15:53;11.70;97.80
18291;DHT22;9271;48.590;8.866;2023-02-19T09:18:21;11.40;99.10
18291;DHT22;9271;48.590;8.866;2023-02-19T09:20:48;11.20;99.80
18291;DHT22;9271;48.590;8.866;2023-02-19T09:23:14;11.20;99.80
18291;DHT22;9271;48.590;8.866;2023-02-19T09:25:42;11.50;99.20
18291;DHT22;9271;48.590;8.866;2023-02-19T09:28:09;11.20;99.30
18291;DHT22;9271;48.590;8.866;2023-02-19T09:30:36;11.60;99.00
18291;DHT22;9271;48.590;8.866;2023-02-19T09:33:03;11.70;98.50
18291;DHT22;9271;48.590;8.866;2023-02-19T09:35:30;11.90;98.00
18291;DHT22;9271;48.590;8.866;2023-02-19T09:37:58;11.60;98.10
18291;DHT22;9271;48.590;8.866;2023-02-19T09:40:25;11.60;98.30
18291;DHT22;9271;48.590;8.866;2023-02-19T09:42:53;11.40;96.90
18291;DHT22;9271;48.590;8.866;2023-02-19T09:45:22;11.00;97.80
18291;DHT22;9271;48.590;8.866;2023-02-19T09:47:53;11.20;97.70
18291;DHT22;9271;48.590;8.866;2023-02-19T09:50:23;11.30;96.80
18291;DHT22;9271;48.590;8.866;2023-02-19T09:52:54;11.30;96.70
18291;DHT22;9271;48.590;8.866;2023-02-19T09:55:29;11.30;96.80
18291;DHT22;9271;48.590;8.866;2023-02-19T09:58:00;11.80;96.40
18291;DHT22;9271;48.590;8.866;2023-02-19T10:00:29;12.00;96.00
18291;DHT22;9271;48.590;8.866;2023-02-19T10:03:02;12.00;95.00
18291;DHT22;9271;48.590;8.866;2023-02-19T10:05:30;11.60;95.00
18291;DHT22;9271;48.590;8.866;2023-02-19T10:07:57;11.20;95.70
18291;DHT22;9271;48.590;8.866;2023-02-19T10:10:28;11.60;96.00
18291;DHT22;9271;48.590;8.866;2023-02-19T10:13:09;11.80;95.30
18291;DHT22;9271;48.590;8.866;2023-02-19T10:15:40;11.80;95.10
18291;DHT22;9271;48.590;8.866;2023-02-19T10:18:10;11.90;95.30
18291;DHT22;9271;48.590;8.866;2023-02-19T10:20:37;11.70;95.00
18291;DHT22;9271;48.590;8.866;2023-02-19T10:23:06;11.70;95.50
18291;DHT22;9271;48.590;8.866;2023-02-19T10:25:34;11.70;95.70
18291;DHT22;9271;48.590;8.866;2023-02-19T10:28:02;11.90;95.10
18291;DHT22;9271;48.590;8.866;2023-02-19T10:30:32;11.70;95.40
18291;DHT22;9271;48.590;8.866;2023-02-19T10:33:02;12.30;94.80
18291;DHT22;9271;48.590;8.866;2023-02-19T10:35:33;11.50;95.20
18291;DHT22;9271;48.590;8.866;2023-02-19T10:38:01;11.70;95.60
18291;DHT22;9271;48.590;8.866;2023-02-19T10:40:28;11.90;95.60
18291;DHT22;9271;48.590;8.866;2023-02-19T10:42:56;12.00;95.60
18291;DHT22;9271;48.590;8.866;2023-02-19T10:45:31;12.10;94.90
18291;DHT22;9271;48.590;8.866;2023-02-19T10:47:59;11.40;95.90
18291;DHT22;9271;48.590;8.866;2023-02-19T10:50:29;11.60;95.60
18291;DHT22;9271;48.590;8.866;2023-02-19T10:52:58;11.70;95.50
18291;DHT22;9271;48.590;8.866;2023-02-19T10:55:28;11.70;94.80
18291;DHT22;9271;48.590;8.866;2023-02-19T10:57:55;11.80;94.80
18291;DHT22;9271;48.590;8.866;2023-02-19T11:00:25;11.80;94.80
18291;DHT22;9271;48.590;8.866;2023-02-19T11:03:13;11.40;94.70
18291;DHT22;9271;48.590;8.866;2023-02-19T11:05:50;11.40;95.50
18291;DHT22;9271;48.590;8.866;2023-02-19T11:08:20;11.80;94.70
18291;DHT22;9271;48.590;8.866;2023-02-19T11:10:48;11.70;94.10
18291;DHT22;9271;48.590;8.866;2023-02-19T11:13:19;11.60;94.20
18291;DHT22;9271;48.590;8.866;2023-02-19T11:15:52;11.20;94.80
18291;DHT22;9271;48.590;8.866;2023-02-19T11:18:22;11.50;94.10
18291;DHT22;9271;48.590;8.866;2023-02-19T11:20:52;11.40;94.80
18291;DHT22;9271;48.590;8.866;2023-02-19T11:23:24;11.70;94.50
18291;DHT22;9271;48.590;8.866;2023-02-19T11:25:53;11.80;94.60
18291;DHT22;9271;48.590;8.866;2023-02-19T11:28:29;12.10;93.60
18291;DHT22;9271;48.590;8.866;2023-02-19T11:31:13;11.90;93.20
18291;DHT22;9271;48.590;8.866;2023-02-19T11:33:44;11.80;93.20
18291;DHT22;9271;48.590;8.866;2023-02-19T11:36:30;12.00;93.30
18291;DHT22;9271;48.590;8.866;2023-02-19T11:38:59;12.30;93.10
18291;DHT22;9271;48.590;8.866;2023-02-19T11:41:54;11.80;92.70
18291;DHT22;9271;48.590;8.866;2023-02-19T11:44:34;11.50;93.30
18291;DHT22;9271;48.590;8.866;2023-02-19T11:47:28;11.70;93.80
18291;DHT22;9271;48.590;8.866;2023-02-19T11:50:02;11.80;93.00
18291;DHT22;9271;48.590;8.866;2023-02-19T11:52:33;12.10;93.60
18291;DHT22;9271;48.590;8.866;2023-02-19T11:55:12;12.70;92.90
18291;DHT22;9271;48.590;8.866;2023-02-19T11:57:45;12.70;92.00
18291;DHT22;9271;48.590;8.866;2023-02-19T12:00:22;12.40;92.20
18291;DHT22;9271;48.590;8.866;2023-02-19T12:06:18;11.60;93.20
18291;DHT22;9271;48.590;8.866;2023-02-19T12:11:48;11.30;93.50
18291;DHT22;9271;48.590;8.866;2023-02-19T12:14:39;11.30;94.00
18291;DHT22;9271;48.590;8.866;2023-02-19T12:17:17;11.60;93.30
18291;DHT22;9271;48.590;8.866;2023-02-19T12:19:57;11.50;93.40
18291;DHT22;9271;48.590;8.866;2023-02-19T12:22:31;11.40;93.70
18291;DHT22;9271;48.590;8.866;2023-02-19T12:25:17;11.60;94.20
18291;DHT22;9271;48.590;8.866;2023-02-19T12:27:58;11.40;93.70
18291;DHT22;9271;48.590;8.866;2023-02-19T12:30:42;11.30;94.90
18291;DHT22;9271;48.590;8.866;2023-02-19T12:33:38;11.40;94.70
18291;DHT22;9271;48.590;8.866;2023-02-19T12:36:18;11.40;94.50
18291;DHT22;9271;48.590;8.866;2023-02-19T12:38:57;12.10;93.70
18291;DHT22;9271;48.590;8.866;2023-02-19T12:41:36;11.80;94.50
18291;DHT22;9271;48.590;8.866;2023-02-19T12:44:08;12.20;93.70
18291;DHT22;9271;48.590;8.866;2023-02-19T12:46:39;12.60;92.60
18291;DHT22;9271;48.590;8.866;2023-02-19T12:49:11;12.20;92.90
18291;DHT22;9271;48.590;8.866;2023-02-19T12:51:43;12.00;93.50
18291;DHT22;9271;48.590;8.866;2023-02-19T12:54:16;12.10;93.50
18291;DHT22;9271;48.590;8.866;2023-02-19T12:56:47;11.90;93.60
18291;DHT22;9271;48.590;8.866;2023-02-19T12:59:20;11.90;93.30
18291;DHT22;9271;48.590;8.866;2023-02-19T13:01:51;11.60;93.70
18291;DHT22;9271;48.590;8.866;2023-02-19T13:04:29;12.10;93.10
18291;DHT22;9271;48.590;8.866;2023-02-19T13:07:02;15.00;88.80
18291;DHT22;9271;48.590;8.866;2023-02-19T13:09:36;14.30;87.50
18291;DHT22;9271;48.590;8.866;2023-02-19T13:12:07;14.20;89.10
18291;DHT22;9271;48.590;8.866;2023-02-19T13:14:40;13.80;88.90
18291;DHT22;9271;48.590;8.866;2023-02-19T13:17:17;13.60;87.90
18291;DHT22;9271;48.590;8.866;2023-02-19T13:19:46;13.50;89.00
18291;DHT22;9271;48.590;8.866;2023-02-19T13:22:20;13.60;88.80
18291;DHT22;9271;48.590;8.866;2023-02-19T13:25:08;13.80;88.80
18291;DHT22;9271;48.590;8.866;2023-02-19T13:27:48;13.50;85.70
18291;DHT22;9271;48.590;8.866;2023-02-19T13:30:27;12.90;88.70
18291;DHT22;9271;48.590;8.866;2023-02-19T13:33:18;12.70;89.20
18291;DHT22;9271;48.590;8.866;2023-02-19T13:36:14;13.00;89.40
18291;DHT22;9271;48.590;8.866;2023-02-19T13:38:43;13.20;89.40
18291;DHT22;9271;48.590;8.866;2023-02-19T13:41:25;13.10;88.20
18291;DHT22;9271;48.590;8.866;2023-02-19T13:43:55;12.40;90.30
18291;DHT22;9271;48.590;8.866;2023-02-19T13:46:23;12.70;89.90
18291;DHT22;9271;48.590;8.866;2023-02-19T13:49:34;13.20;89.30
18291;DHT22;9271;48.590;8.866;2023-02-19T13:52:34;12.80;89.80
18291;DHT22;9271;48.590;8.866;2023-02-19T13:55:42;12.60;90.60
18291;DHT22;9271;48.590;8.866;2023-02-19T13:58:34;12.20;90.50
18291;DHT22;9271;48.590;8.866;2023-02-19T14:01:02;11.80;91.50
18291;DHT22;9271;48.590;8.866;2023-02-19T14:03:39;11.60;91.80
18291;DHT22;9271;48.590;8.866;2023-02-19T14:06:10;11.50;92.30
18291;DHT22;9271;48.590;8.866;2023-02-19T14:08:53;11.40;92.80
18291;DHT22;9271;48.590;8.866;2023-02-19T14:14:26;11.40;93.60
18291;DHT22;9271;48.590;8.866;2023-02-19T14:16:58;11.40;94.70
18291;DHT22;9271;48.590;8.866;2023-02-19T14:19:59;11.60;94.50
18291;DHT22;9271;48.590;8.866;2023-02-19T14:22:50;11.70;94.40
18291;DHT22;9271;48.590;8.866;2023-02-19T14:25:43;11.80;94.30
18291;DHT22;9271;48.590;8.866;2023-02-19T14:28:22;12.10;93.80
18291;DHT22;9271;48.590;8.866;2023-02-19T14:30:52;11.80;93.50
18291;DHT22;9271;48.590;8.866;2023-02-19T14:33:22;11.30;93.90
18291;DHT22;9271;48.590;8.866;2023-02-19T14:35:52;10.80;95.00
18291;DHT22;9271;48.590;8.866;2023-02-19T14:38:22;10.90;94.90
18291;DHT22;9271;48.590;8.866;2023-02-19T14:40:53;10.90;94.90
18291;DHT22;9271;48.590;8.866;2023-02-19T14:43:23;10.90;95.40
18291;DHT22;9271;48.590;8.866;2023-02-19T14:45:54;11.00;95.30
18291;DHT22;9271;48.590;8.866;2023-02-19T14:48:24;11.10;95.40
18291;DHT22;9271;48.590;8.866;2023-02-19T14:50:56;10.90;95.50
18291;DHT22;9271;48.590;8.866;2023-02-19T14:53:26;10.80;95.70
18291;DHT22;9271;48.590;8.866;2023-02-19T14:55:55;10.70;95.90
18291;DHT22;9271;48.590;8.866;2023-02-19T14:58:27;10.70;96.40
18291;DHT22;9271;48.590;8.866;2023-02-19T15:00:55;10.90;96.10
18291;DHT22;9271;48.590;8.866;2023-02-19T15:03:27;10.90;96.20
18291;DHT22;9271;48.590;8.866;2023-02-19T15:05:57;11.20;96.70
18291;DHT22;9271;48.590;8.866;2023-02-19T15:08:30;11.20;97.10
18291;DHT22;9271;48.590;8.866;2023-02-19T15:11:00;10.90;98.00
18291;DHT22;9271;48.590;8.866;2023-02-19T15:13:28;11.20;98.40
18291;DHT22;9271;48.590;8.866;2023-02-19T15:15:56;11.60;97.30
18291;DHT22;9271;48.590;8.866;2023-02-19T15:18:24;12.00;96.90
18291;DHT22;9271;48.590;8.866;2023-02-19T15:20:58;12.40;96.10
18291;DHT22;9271;48.590;8.866;2023-02-19T15:23:26;12.70;95.50
18291;DHT22;9271;48.590;8.866;2023-02-19T15:25:55;12.50;95.00
18291;DHT22;9271;48.590;8.866;2023-02-19T15:28:29;12.40;95.50
18291;DHT22;9271;48.590;8.866;2023-02-19T15:31:12;12.00;95.70
18291;DHT22;9271;48.590;8.866;2023-02-19T15:33:47;12.20;96.10
18291;DHT22;9271;48.590;8.866;2023-02-19T15:36:16;12.20;95.70
18291;DHT22;9271;48.590;8.866;2023-02-19T15:38:52;12.10;95.40
18291;DHT22;9271;48.590;8.866;2023-02-19T15:41:20;11.40;96.60
18291;DHT22;9271;48.590;8.866;2023-02-19T15:43:53;11.50;96.60
18291;DHT22;9271;48.590;8.866;2023-02-19T15:46:22;11.80;96.40
18291;DHT22;9271;48.590;8.866;2023-02-19T15:48:54;12.00;95.90
18291;DHT22;9271;48.590;8.866;2023-02-19T15:51:25;11.90;95.60
18291;DHT22;9271;48.590;8.866;2023-02-19T15:53:56;11.60;96.30
18291;DHT22;9271;48.590;8.866;2023-02-19T15:56:26;11.60;96.30
18291;DHT22;9271;48.590;8.866;2023-02-19T15:58:59;11.70;96.10
18291;DHT22;9271;48.590;8.866;2023-02-19T16:01:29;11.90;95.90
18291;DHT22;9271;48.590;8.866;2023-02-19T16:03:56;11.50;96.00
18291;DHT22;9271;48.590;8.866;2023-02-19T16:06:24;11.60;96.10
18291;DHT22;9271;48.590;8.866;2023-02-19T16:08:59;11.70;96.30
18291;DHT22;9271;48.590;8.866;2023-02-19T16:11:29;11.60;96.60
18291;DHT22;9271;48.590;8.866;2023-02-19T16:14:16;11.50;96.80
18291;DHT22;9271;48.590;8.866;2023-02-19T16:16:44;11.70;96.90
18291;DHT22;9271;48.590;8.866;2023-02-19T16:19:17;11.50;97.10